サンフランシスコ の空港の天気 - METARとTAF

サンフランシスコ国際空港 ( KSFO / SFO ) - アメリカ カリフォルニア州サンマテオ郡
飛行場実況気象(Metar)
観測時間11/15 07:56 PST (11/15 15:56 UTC)
風向・風速南 2m/s
視程4000m
天気現象煙霧
少しの雲 雲底高度 180m
全天の4割程度の雲 雲底高度 550m
全天を覆う雲 雲底高度 640m
気温8.3℃
湿度80%
気圧1022hPa
METARKSFO 151556Z 18004KT 2 1/2SM HZ FEW006 SCT018 OVC021 08/05 A3018 RMK AO2 SLP220 T00830050 $
過去の天気等 Google飛行場航空写真 Wunderground天気予報

過去48時間のMETAR

飛行場予報(TAF)
発表時間: 11/15 06:53 PST (11/15 14:53 UTC)
予報対象時間: 15日7時 PST ~ 16日10時 PST
風向・風速不定 2m/s
視程4830m
天気現象煙 煙霧
少しの雲 雲底高度 550m
全天の8割程度の雲 雲底高度 850m
全天を覆う雲 雲底高度 1070m
15日15時 PST から
風向・風速西北西 5m/s
視程6440m
天気現象煙 煙霧
少しの雲 雲底高度 610m
少しの雲 雲底高度 7620m
15日19時 PST から
風向・風速不定 2m/s
視程6440m
天気現象煙 煙霧
少しの雲 雲底高度 610m
少しの雲 雲底高度 7620m
16日0時 PST から
風向・風速不定 2m/s
視程4830m
天気現象煙 煙霧
少しの雲 雲底高度 300m
全天の8割程度の雲 雲底高度 910m
KSFO 151453Z 1515/1618 VRB04KT 3SM FU HZ FEW018 BKN028 OVC035
FM152300 29010KT 4SM FU HZ FEW020 FEW250
FM160300 VRB04KT 4SM FU HZ FEW020 FEW250
FM160800 VRB04KT 3SM FU HZ FEW010 BKN030